sensor_id;sensor_type;location;lat;lon;timestamp;pressure;altitude;pressure_sealevel;temperature
69186;BMP280;56298;49.246;9.410;2023-03-16T00:02:21;99924.00;;;0.38
69186;BMP280;56298;49.246;9.410;2023-03-16T00:04:48;99925.38;;;0.41
69186;BMP280;56298;49.246;9.410;2023-03-16T00:07:14;99929.66;;;0.36
69186;BMP280;56298;49.246;9.410;2023-03-16T00:09:40;99925.94;;;0.48
69186;BMP280;56298;49.246;9.410;2023-03-16T00:12:16;99923.50;;;0.41
69186;BMP280;56298;49.246;9.410;2023-03-16T00:14:44;99920.25;;;0.29
69186;BMP280;56298;49.246;9.410;2023-03-16T00:17:11;99926.19;;;0.31
69186;BMP280;56298;49.246;9.410;2023-03-16T00:19:53;99932.38;;;0.36
69186;BMP280;56298;49.246;9.410;2023-03-16T00:22:20;99935.34;;;0.30
69186;BMP280;56298;49.246;9.410;2023-03-16T00:24:46;99940.63;;;-0.02
69186;BMP280;56298;49.246;9.410;2023-03-16T00:27:13;99932.75;;;-0.14
69186;BMP280;56298;49.246;9.410;2023-03-16T00:29:40;99931.94;;;-0.14
69186;BMP280;56298;49.246;9.410;2023-03-16T00:32:22;99931.75;;;0.08
69186;BMP280;56298;49.246;9.410;2023-03-16T00:34:47;99930.66;;;0.04
69186;BMP280;56298;49.246;9.410;2023-03-16T00:37:15;99938.13;;;-0.19
69186;BMP280;56298;49.246;9.410;2023-03-16T00:39:41;99936.69;;;-0.32
69186;BMP280;56298;49.246;9.410;2023-03-16T00:42:08;99944.88;;;-0.11
69186;BMP280;56298;49.246;9.410;2023-03-16T00:44:35;99934.94;;;-0.05
69186;BMP280;56298;49.246;9.410;2023-03-16T00:47:01;99926.56;;;-0.09
69186;BMP280;56298;49.246;9.410;2023-03-16T00:49:27;99930.94;;;0.03
69186;BMP280;56298;49.246;9.410;2023-03-16T00:51:52;99925.50;;;-0.03
69186;BMP280;56298;49.246;9.410;2023-03-16T00:54:18;99926.31;;;-0.07
69186;BMP280;56298;49.246;9.410;2023-03-16T00:56:44;99933.09;;;0.06
69186;BMP280;56298;49.246;9.410;2023-03-16T00:59:09;99926.38;;;0.08
69186;BMP280;56298;49.246;9.410;2023-03-16T01:01:37;99922.28;;;-0.05
69186;BMP280;56298;49.246;9.410;2023-03-16T01:04:02;99923.91;;;0.07
69186;BMP280;56298;49.246;9.410;2023-03-16T01:06:27;99914.00;;;0.23
69186;BMP280;56298;49.246;9.410;2023-03-16T01:08:52;99908.78;;;-0.05
69186;BMP280;56298;49.246;9.410;2023-03-16T01:11:20;99912.75;;;-0.23
69186;BMP280;56298;49.246;9.410;2023-03-16T01:13:47;99920.09;;;-0.03
69186;BMP280;56298;49.246;9.410;2023-03-16T01:16:15;99918.06;;;0.20
69186;BMP280;56298;49.246;9.410;2023-03-16T01:18:40;99917.00;;;0.27
69186;BMP280;56298;49.246;9.410;2023-03-16T01:21:08;99908.91;;;0.27
69186;BMP280;56298;49.246;9.410;2023-03-16T01:23:36;99911.88;;;0.25
69186;BMP280;56298;49.246;9.410;2023-03-16T01:26:01;99906.22;;;0.21
69186;BMP280;56298;49.246;9.410;2023-03-16T01:28:31;99907.81;;;0.17
69186;BMP280;56298;49.246;9.410;2023-03-16T01:31:02;99902.34;;;0.07
69186;BMP280;56298;49.246;9.410;2023-03-16T01:33:29;99897.75;;;-0.03
69186;BMP280;56298;49.246;9.410;2023-03-16T01:35:59;99899.94;;;0.00
69186;BMP280;56298;49.246;9.410;2023-03-16T01:38:25;99897.75;;;-0.03
69186;BMP280;56298;49.246;9.410;2023-03-16T01:40:51;99902.03;;;-0.07
69186;BMP280;56298;49.246;9.410;2023-03-16T01:43:19;99894.50;;;-0.05
69186;BMP280;56298;49.246;9.410;2023-03-16T01:48:30;99895.91;;;0.03
69186;BMP280;56298;49.246;9.410;2023-03-16T01:51:04;99891.28;;;-0.02
69186;BMP280;56298;49.246;9.410;2023-03-16T01:53:30;99904.97;;;-0.19
69186;BMP280;56298;49.246;9.410;2023-03-16T01:55:58;99894.94;;;-0.24
69186;BMP280;56298;49.246;9.410;2023-03-16T01:58:26;99907.13;;;-0.16
69186;BMP280;56298;49.246;9.410;2023-03-16T02:00:52;99899.28;;;-0.23
69186;BMP280;56298;49.246;9.410;2023-03-16T02:03:19;99897.06;;;-0.31
69186;BMP280;56298;49.246;9.410;2023-03-16T02:05:51;99897.13;;;-0.21
69186;BMP280;56298;49.246;9.410;2023-03-16T02:08:19;99896.88;;;-0.14
69186;BMP280;56298;49.246;9.410;2023-03-16T02:10:47;99891.22;;;-0.18
69186;BMP280;56298;49.246;9.410;2023-03-16T02:13:12;99888.28;;;-0.16
69186;BMP280;56298;49.246;9.410;2023-03-16T02:15:38;99876.09;;;-0.24
69186;BMP280;56298;49.246;9.410;2023-03-16T02:18:03;99880.47;;;-0.12
69186;BMP280;56298;49.246;9.410;2023-03-16T02:20:41;99871.81;;;-0.15
69186;BMP280;56298;49.246;9.410;2023-03-16T02:23:10;99869.06;;;-0.30
69186;BMP280;56298;49.246;9.410;2023-03-16T02:26:08;99877.97;;;-0.30
69186;BMP280;56298;49.246;9.410;2023-03-16T02:29:23;99876.63;;;-0.27
69186;BMP280;56298;49.246;9.410;2023-03-16T02:31:26;99871.88;;;-0.53
69186;BMP280;56298;49.246;9.410;2023-03-16T02:33:52;99870.13;;;-0.74
69186;BMP280;56298;49.246;9.410;2023-03-16T02:36:19;99868.44;;;-0.86
69186;BMP280;56298;49.246;9.410;2023-03-16T02:38:44;99861.09;;;-0.96
69186;BMP280;56298;49.246;9.410;2023-03-16T02:41:18;99853.59;;;-0.94
69186;BMP280;56298;49.246;9.410;2023-03-16T02:43:54;99862.31;;;-0.71
69186;BMP280;56298;49.246;9.410;2023-03-16T02:46:24;99849.75;;;-0.55
69186;BMP280;56298;49.246;9.410;2023-03-16T02:49:26;99846.53;;;-0.57
69186;BMP280;56298;49.246;9.410;2023-03-16T02:51:53;99842.53;;;-0.49
69186;BMP280;56298;49.246;9.410;2023-03-16T02:54:21;99839.22;;;-0.61
69186;BMP280;56298;49.246;9.410;2023-03-16T02:56:46;99852.28;;;-0.86
69186;BMP280;56298;49.246;9.410;2023-03-16T02:59:12;99851.94;;;-0.95
69186;BMP280;56298;49.246;9.410;2023-03-16T03:01:37;99850.03;;;-0.99
69186;BMP280;56298;49.246;9.410;2023-03-16T03:04:03;99848.97;;;-0.98
69186;BMP280;56298;49.246;9.410;2023-03-16T03:06:28;99861.63;;;-0.99
69186;BMP280;56298;49.246;9.410;2023-03-16T03:08:54;99863.09;;;-0.81
69186;BMP280;56298;49.246;9.410;2023-03-16T03:11:19;99862.00;;;-0.80
69186;BMP280;56298;49.246;9.410;2023-03-16T03:13:45;99855.03;;;-0.75
69186;BMP280;56298;49.246;9.410;2023-03-16T03:16:12;99844.59;;;-0.61
69186;BMP280;56298;49.246;9.410;2023-03-16T03:18:37;99843.00;;;-0.62
69186;BMP280;56298;49.246;9.410;2023-03-16T03:21:03;99849.47;;;-0.58
69186;BMP280;56298;49.246;9.410;2023-03-16T03:23:28;99840.88;;;-0.60
69186;BMP280;56298;49.246;9.410;2023-03-16T03:25:58;99836.84;;;-0.58
69186;BMP280;56298;49.246;9.410;2023-03-16T03:28:23;99843.47;;;-0.71
69186;BMP280;56298;49.246;9.410;2023-03-16T03:30:49;99842.72;;;-0.66
69186;BMP280;56298;49.246;9.410;2023-03-16T03:33:15;99849.94;;;-0.72
69186;BMP280;56298;49.246;9.410;2023-03-16T03:35:40;99840.84;;;-0.66
69186;BMP280;56298;49.246;9.410;2023-03-16T03:38:06;99834.34;;;-0.70
69186;BMP280;56298;49.246;9.410;2023-03-16T03:40:32;99834.78;;;-0.88
69186;BMP280;56298;49.246;9.410;2023-03-16T03:42:57;99830.47;;;-0.89
69186;BMP280;56298;49.246;9.410;2023-03-16T03:45:23;99827.72;;;-0.95
69186;BMP280;56298;49.246;9.410;2023-03-16T03:47:48;99832.28;;;-1.00
69186;BMP280;56298;49.246;9.410;2023-03-16T03:50:13;99834.47;;;-0.92
69186;BMP280;56298;49.246;9.410;2023-03-16T03:52:39;99822.97;;;-0.82
69186;BMP280;56298;49.246;9.410;2023-03-16T03:55:04;99825.91;;;-0.84
69186;BMP280;56298;49.246;9.410;2023-03-16T03:57:30;99813.81;;;-0.81
69186;BMP280;56298;49.246;9.410;2023-03-16T03:59:55;99814.38;;;-0.79
69186;BMP280;56298;49.246;9.410;2023-03-16T04:02:20;99814.25;;;-0.95
69186;BMP280;56298;49.246;9.410;2023-03-16T04:04:46;99813.66;;;-1.07
69186;BMP280;56298;49.246;9.410;2023-03-16T04:07:11;99817.09;;;-1.12
69186;BMP280;56298;49.246;9.410;2023-03-16T04:09:37;99821.13;;;-1.14
69186;BMP280;56298;49.246;9.410;2023-03-16T04:12:04;99818.44;;;-1.14
69186;BMP280;56298;49.246;9.410;2023-03-16T04:14:30;99825.19;;;-1.12
69186;BMP280;56298;49.246;9.410;2023-03-16T04:16:56;99829.25;;;-1.04
69186;BMP280;56298;49.246;9.410;2023-03-16T04:19:22;99834.94;;;-1.06
69186;BMP280;56298;49.246;9.410;2023-03-16T04:21:48;99832.25;;;-1.06
69186;BMP280;56298;49.246;9.410;2023-03-16T04:24:13;99832.03;;;-0.99
69186;BMP280;56298;49.246;9.410;2023-03-16T04:26:40;99828.25;;;-0.98
69186;BMP280;56298;49.246;9.410;2023-03-16T04:29:05;99819.28;;;-1.09
69186;BMP280;56298;49.246;9.410;2023-03-16T04:31:31;99817.38;;;-1.13
69186;BMP280;56298;49.246;9.410;2023-03-16T04:33:56;99811.16;;;-1.19
69186;BMP280;56298;49.246;9.410;2023-03-16T04:36:21;99815.16;;;-1.22
69186;BMP280;56298;49.246;9.410;2023-03-16T04:38:49;99808.47;;;-1.19
69186;BMP280;56298;49.246;9.410;2023-03-16T04:41:16;99805.44;;;-1.23
69186;BMP280;56298;49.246;9.410;2023-03-16T04:43:42;99801.41;;;-1.25
69186;BMP280;56298;49.246;9.410;2023-03-16T04:46:07;99797.91;;;-1.26
69186;BMP280;56298;49.246;9.410;2023-03-16T04:48:33;99808.72;;;-1.21
69186;BMP280;56298;49.246;9.410;2023-03-16T04:50:58;99804.97;;;-1.14
69186;BMP280;56298;49.246;9.410;2023-03-16T04:53:25;99807.25;;;-0.96
69186;BMP280;56298;49.246;9.410;2023-03-16T04:55:50;99803.00;;;-0.86
69186;BMP280;56298;49.246;9.410;2023-03-16T04:58:16;99796.88;;;-0.82
69186;BMP280;56298;49.246;9.410;2023-03-16T05:00:41;99794.16;;;-0.87
69186;BMP280;56298;49.246;9.410;2023-03-16T05:03:07;99800.31;;;-0.86
69186;BMP280;56298;49.246;9.410;2023-03-16T05:05:35;99799.00;;;-0.84
69186;BMP280;56298;49.246;9.410;2023-03-16T05:08:00;99805.69;;;-0.92
69186;BMP280;56298;49.246;9.410;2023-03-16T05:10:26;99799.22;;;-0.90
69186;BMP280;56298;49.246;9.410;2023-03-16T05:12:52;99802.72;;;-0.90
69186;BMP280;56298;49.246;9.410;2023-03-16T05:15:17;99800.31;;;-0.86
69186;BMP280;56298;49.246;9.410;2023-03-16T05:17:42;99798.75;;;-0.77
69186;BMP280;56298;49.246;9.410;2023-03-16T05:20:12;99800.09;;;-0.80
69186;BMP280;56298;49.246;9.410;2023-03-16T05:22:42;99800.34;;;-0.81
69186;BMP280;56298;49.246;9.410;2023-03-16T05:25:08;99801.41;;;-0.87
69186;BMP280;56298;49.246;9.410;2023-03-16T05:27:39;99795.22;;;-0.83
69186;BMP280;56298;49.246;9.410;2023-03-16T05:30:06;99797.59;;;-0.92
69186;BMP280;56298;49.246;9.410;2023-03-16T05:32:32;99806.97;;;-0.99
69186;BMP280;56298;49.246;9.410;2023-03-16T05:34:57;99805.03;;;-1.04
69186;BMP280;56298;49.246;9.410;2023-03-16T05:37:22;99803.97;;;-1.08
69186;BMP280;56298;49.246;9.410;2023-03-16T05:39:49;99800.97;;;-1.12
69186;BMP280;56298;49.246;9.410;2023-03-16T05:42:14;99801.81;;;-1.06
69186;BMP280;56298;49.246;9.410;2023-03-16T05:44:39;99801.84;;;-1.01
69186;BMP280;56298;49.246;9.410;2023-03-16T05:47:04;99807.44;;;-1.08
69186;BMP280;56298;49.246;9.410;2023-03-16T05:49:30;99799.97;;;-1.00
69186;BMP280;56298;49.246;9.410;2023-03-16T05:51:55;99801.44;;;-0.82
69186;BMP280;56298;49.246;9.410;2023-03-16T05:54:20;99792.94;;;-0.58
69186;BMP280;56298;49.246;9.410;2023-03-16T05:56:45;99791.19;;;-0.27
69186;BMP280;56298;49.246;9.410;2023-03-16T05:59:10;99793.47;;;0.18
69186;BMP280;56298;49.246;9.410;2023-03-16T06:01:36;99786.16;;;0.65
69186;BMP280;56298;49.246;9.410;2023-03-16T06:04:01;99781.81;;;1.06
69186;BMP280;56298;49.246;9.410;2023-03-16T06:06:29;99787.94;;;1.33
69186;BMP280;56298;49.246;9.410;2023-03-16T06:08:54;99788.25;;;1.26
69186;BMP280;56298;49.246;9.410;2023-03-16T06:11:20;99792.56;;;1.22
69186;BMP280;56298;49.246;9.410;2023-03-16T06:13:45;99789.81;;;1.37
69186;BMP280;56298;49.246;9.410;2023-03-16T06:16:10;99781.13;;;2.01
69186;BMP280;56298;49.246;9.410;2023-03-16T06:18:38;99779.34;;;2.21
69186;BMP280;56298;49.246;9.410;2023-03-16T06:21:04;99775.66;;;2.06
69186;BMP280;56298;49.246;9.410;2023-03-16T06:23:29;99781.31;;;2.45
69186;BMP280;56298;49.246;9.410;2023-03-16T06:25:54;99785.22;;;2.63
69186;BMP280;56298;49.246;9.410;2023-03-16T06:28:20;99783.13;;;2.84
69186;BMP280;56298;49.246;9.410;2023-03-16T06:30:46;99782.56;;;2.87
69186;BMP280;56298;49.246;9.410;2023-03-16T06:33:11;99786.13;;;2.83
69186;BMP280;56298;49.246;9.410;2023-03-16T06:35:36;99787.88;;;2.38
69186;BMP280;56298;49.246;9.410;2023-03-16T06:38:01;99782.31;;;3.08
69186;BMP280;56298;49.246;9.410;2023-03-16T06:40:27;99777.25;;;3.26
69186;BMP280;56298;49.246;9.410;2023-03-16T06:42:52;99774.63;;;3.59
69186;BMP280;56298;49.246;9.410;2023-03-16T06:45:17;99780.50;;;3.85
69186;BMP280;56298;49.246;9.410;2023-03-16T06:47:46;99783.03;;;4.01
69186;BMP280;56298;49.246;9.410;2023-03-16T06:50:11;99783.59;;;4.64
69186;BMP280;56298;49.246;9.410;2023-03-16T06:52:37;99778.03;;;5.40
69186;BMP280;56298;49.246;9.410;2023-03-16T06:55:02;99783.75;;;5.75
69186;BMP280;56298;49.246;9.410;2023-03-16T06:57:27;99790.78;;;6.13
69186;BMP280;56298;49.246;9.410;2023-03-16T06:59:53;99795.84;;;6.28
69186;BMP280;56298;49.246;9.410;2023-03-16T07:02:18;99803.06;;;6.65
69186;BMP280;56298;49.246;9.410;2023-03-16T07:04:44;99796.91;;;6.50
69186;BMP280;56298;49.246;9.410;2023-03-16T07:07:09;99791.28;;;6.15
69186;BMP280;56298;49.246;9.410;2023-03-16T07:09:36;99801.28;;;5.83
69186;BMP280;56298;49.246;9.410;2023-03-16T07:12:01;99801.34;;;5.92
69186;BMP280;56298;49.246;9.410;2023-03-16T07:14:27;99791.06;;;5.88
69186;BMP280;56298;49.246;9.410;2023-03-16T07:16:52;99802.75;;;6.12
69186;BMP280;56298;49.246;9.410;2023-03-16T07:19:18;99802.16;;;6.15
69186;BMP280;56298;49.246;9.410;2023-03-16T07:21:44;99805.56;;;6.21
69186;BMP280;56298;49.246;9.410;2023-03-16T07:24:09;99810.25;;;6.06
69186;BMP280;56298;49.246;9.410;2023-03-16T07:26:35;99808.88;;;6.40
69186;BMP280;56298;49.246;9.410;2023-03-16T07:29:01;99813.94;;;6.56
69186;BMP280;56298;49.246;9.410;2023-03-16T07:31:29;99813.22;;;6.73
69186;BMP280;56298;49.246;9.410;2023-03-16T07:33:54;99810.53;;;6.82
69186;BMP280;56298;49.246;9.410;2023-03-16T07:36:19;99808.94;;;6.90
69186;BMP280;56298;49.246;9.410;2023-03-16T07:38:44;99805.09;;;6.91
69186;BMP280;56298;49.246;9.410;2023-03-16T07:41:10;99816.06;;;6.36
69186;BMP280;56298;49.246;9.410;2023-03-16T07:43:35;99808.53;;;6.74
69186;BMP280;56298;49.246;9.410;2023-03-16T07:46:00;99809.91;;;6.85
69186;BMP280;56298;49.246;9.410;2023-03-16T07:48:26;99804.84;;;6.69
69186;BMP280;56298;49.246;9.410;2023-03-16T07:50:51;99809.81;;;6.67
69186;BMP280;56298;49.246;9.410;2023-03-16T07:53:18;99803.25;;;7.09
69186;BMP280;56298;49.246;9.410;2023-03-16T07:55:43;99801.66;;;7.17
69186;BMP280;56298;49.246;9.410;2023-03-16T07:58:09;99803.53;;;6.98
69186;BMP280;56298;49.246;9.410;2023-03-16T08:00:35;99803.44;;;7.30
69186;BMP280;56298;49.246;9.410;2023-03-16T08:03:01;99795.88;;;7.18
69186;BMP280;56298;49.246;9.410;2023-03-16T08:05:27;99798.28;;;7.29
69186;BMP280;56298;49.246;9.410;2023-03-16T08:07:52;99798.78;;;7.22
69186;BMP280;56298;49.246;9.410;2023-03-16T08:10:18;99798.91;;;7.17
69186;BMP280;56298;49.246;9.410;2023-03-16T08:12:43;99783.72;;;7.60
69186;BMP280;56298;49.246;9.410;2023-03-16T08:15:10;99796.09;;;7.84
69186;BMP280;56298;49.246;9.410;2023-03-16T08:17:36;99798.78;;;7.75
69186;BMP280;56298;49.246;9.410;2023-03-16T08:20:03;99799.44;;;7.89
69186;BMP280;56298;49.246;9.410;2023-03-16T08:22:32;99794.75;;;7.99
69186;BMP280;56298;49.246;9.410;2023-03-16T08:24:57;99795.09;;;8.06
69186;BMP280;56298;49.246;9.410;2023-03-16T08:27:23;99788.53;;;7.72
69186;BMP280;56298;49.246;9.410;2023-03-16T08:29:53;99793.00;;;7.85
69186;BMP280;56298;49.246;9.410;2023-03-16T08:32:18;99787.69;;;7.98
69186;BMP280;56298;49.246;9.410;2023-03-16T08:34:43;99779.03;;;7.87
69186;BMP280;56298;49.246;9.410;2023-03-16T08:37:10;99783.56;;;7.91
69186;BMP280;56298;49.246;9.410;2023-03-16T08:39:35;99782.41;;;7.92
69186;BMP280;56298;49.246;9.410;2023-03-16T08:42:00;99787.69;;;7.98
69186;BMP280;56298;49.246;9.410;2023-03-16T08:44:26;99780.03;;;7.82
69186;BMP280;56298;49.246;9.410;2023-03-16T08:46:55;99783.88;;;7.81
69186;BMP280;56298;49.246;9.410;2023-03-16T08:49:20;99777.59;;;7.89
69186;BMP280;56298;49.246;9.410;2023-03-16T08:51:45;99767.94;;;7.92
69186;BMP280;56298;49.246;9.410;2023-03-16T08:54:11;99768.72;;;8.10
69186;BMP280;56298;49.246;9.410;2023-03-16T08:56:36;99767.56;;;8.20
69186;BMP280;56298;49.246;9.410;2023-03-16T08:59:02;99767.97;;;8.48
69186;BMP280;56298;49.246;9.410;2023-03-16T09:01:27;99766.47;;;8.60
69186;BMP280;56298;49.246;9.410;2023-03-16T09:03:53;99765.31;;;8.61
69186;BMP280;56298;49.246;9.410;2023-03-16T09:06:19;99769.44;;;8.76
69186;BMP280;56298;49.246;9.410;2023-03-16T09:08:44;99761.44;;;8.71
69186;BMP280;56298;49.246;9.410;2023-03-16T09:11:12;99763.22;;;8.97
69186;BMP280;56298;49.246;9.410;2023-03-16T09:13:39;99761.66;;;8.87
69186;BMP280;56298;49.246;9.410;2023-03-16T09:16:06;99758.59;;;8.88
69186;BMP280;56298;49.246;9.410;2023-03-16T09:18:32;99756.94;;;8.96
69186;BMP280;56298;49.246;9.410;2023-03-16T09:21:00;99757.13;;;9.34
69186;BMP280;56298;49.246;9.410;2023-03-16T09:23:27;99767.03;;;9.47
69186;BMP280;56298;49.246;9.410;2023-03-16T09:25:56;99759.28;;;9.83
69186;BMP280;56298;49.246;9.410;2023-03-16T09:28:22;99761.06;;;9.24
69186;BMP280;56298;49.246;9.410;2023-03-16T09:30:47;99762.22;;;9.23
69186;BMP280;56298;49.246;9.410;2023-03-16T09:33:14;99758.13;;;9.29
69186;BMP280;56298;49.246;9.410;2023-03-16T09:35:39;99749.75;;;9.34
69186;BMP280;56298;49.246;9.410;2023-03-16T09:38:04;99741.91;;;9.45
69186;BMP280;56298;49.246;9.410;2023-03-16T09:40:32;99735.38;;;8.95
69186;BMP280;56298;49.246;9.410;2023-03-16T09:43:13;99732.00;;;8.98
69186;BMP280;56298;49.246;9.410;2023-03-16T09:46:10;99736.97;;;8.96
69186;BMP280;56298;49.246;9.410;2023-03-16T09:48:38;99732.97;;;9.14
69186;BMP280;56298;49.246;9.410;2023-03-16T09:51:09;99737.03;;;9.84
69186;BMP280;56298;49.246;9.410;2023-03-16T09:53:38;99734.31;;;9.97
69186;BMP280;56298;49.246;9.410;2023-03-16T09:56:09;99731.19;;;9.73
69186;BMP280;56298;49.246;9.410;2023-03-16T09:58:34;99731.03;;;9.57
69186;BMP280;56298;49.246;9.410;2023-03-16T10:06:58;99742.03;;;9.82
69186;BMP280;56298;49.246;9.410;2023-03-16T10:09:36;99730.31;;;9.94
69186;BMP280;56298;49.246;9.410;2023-03-16T10:12:07;99734.38;;;10.22
69186;BMP280;56298;49.246;9.410;2023-03-16T10:14:51;99721.69;;;10.29
69186;BMP280;56298;49.246;9.410;2023-03-16T10:17:24;99720.84;;;10.66
69186;BMP280;56298;49.246;9.410;2023-03-16T10:20:00;99720.09;;;10.94
69186;BMP280;56298;49.246;9.410;2023-03-16T10:22:32;99714.78;;;11.14
69186;BMP280;56298;49.246;9.410;2023-03-16T10:27:29;99703.25;;;11.97
69186;BMP280;56298;49.246;9.410;2023-03-16T10:29:55;99698.22;;;12.19
69186;BMP280;56298;49.246;9.410;2023-03-16T10:32:21;99699.38;;;12.18
69186;BMP280;56298;49.246;9.410;2023-03-16T10:35:02;99682.78;;;12.47
69186;BMP280;56298;49.246;9.410;2023-03-16T10:37:30;99685.63;;;12.34
69186;BMP280;56298;49.246;9.410;2023-03-16T10:39:56;99683.78;;;12.22
69186;BMP280;56298;49.246;9.410;2023-03-16T10:42:24;99678.91;;;12.32
69186;BMP280;56298;49.246;9.410;2023-03-16T10:44:57;99682.59;;;12.39
69186;BMP280;56298;49.246;9.410;2023-03-16T10:47:27;99675.75;;;12.49
69186;BMP280;56298;49.246;9.410;2023-03-16T10:49:54;99682.03;;;12.50
69186;BMP280;56298;49.246;9.410;2023-03-16T10:52:32;99682.34;;;12.29
69186;BMP280;56298;49.246;9.410;2023-03-16T10:55:16;99686.56;;;12.42
69186;BMP280;56298;49.246;9.410;2023-03-16T10:57:51;99687.31;;;12.39
69186;BMP280;56298;49.246;9.410;2023-03-16T11:00:21;99690.22;;;12.46
69186;BMP280;56298;49.246;9.410;2023-03-16T11:02:48;99683.94;;;12.85
69186;BMP280;56298;49.246;9.410;2023-03-16T11:05:25;99674.66;;;12.93
69186;BMP280;56298;49.246;9.410;2023-03-16T11:10:34;99679.25;;;13.05
69186;BMP280;56298;49.246;9.410;2023-03-16T11:13:02;99682.59;;;12.39
69186;BMP280;56298;49.246;9.410;2023-03-16T11:15:46;99686.22;;;12.08
69186;BMP280;56298;49.246;9.410;2023-03-16T11:18:21;99680.53;;;12.17
69186;BMP280;56298;49.246;9.410;2023-03-16T11:20:49;99673.13;;;12.57
69186;BMP280;56298;49.246;9.410;2023-03-16T11:23:20;99659.31;;;12.73
69186;BMP280;56298;49.246;9.410;2023-03-16T11:25:51;99656.19;;;12.54
69186;BMP280;56298;49.246;9.410;2023-03-16T11:28:34;99653.13;;;12.40
69186;BMP280;56298;49.246;9.410;2023-03-16T11:31:21;99654.63;;;12.18
69186;BMP280;56298;49.246;9.410;2023-03-16T11:33:46;99649.00;;;11.94
69186;BMP280;56298;49.246;9.410;2023-03-16T11:36:42;99646.78;;;12.00
69186;BMP280;56298;49.246;9.410;2023-03-16T11:39:23;99637.56;;;12.28
69186;BMP280;56298;49.246;9.410;2023-03-16T11:44:56;99630.31;;;12.20
69186;BMP280;56298;49.246;9.410;2023-03-16T11:47:42;99636.13;;;11.98
69186;BMP280;56298;49.246;9.410;2023-03-16T11:50:20;99633.41;;;12.18
69186;BMP280;56298;49.246;9.410;2023-03-16T11:53:02;99630.59;;;12.15
69186;BMP280;56298;49.246;9.410;2023-03-16T11:55:38;99622.41;;;12.54
69186;BMP280;56298;49.246;9.410;2023-03-16T12:00:49;99620.16;;;12.79
69186;BMP280;56298;49.246;9.410;2023-03-16T12:06:35;99619.41;;;12.43
69186;BMP280;56298;49.246;9.410;2023-03-16T12:12:22;99612.69;;;12.05
69186;BMP280;56298;49.246;9.410;2023-03-16T12:14:55;99611.19;;;12.07
69186;BMP280;56298;49.246;9.410;2023-03-16T12:17:28;99598.38;;;12.15
69186;BMP280;56298;49.246;9.410;2023-03-16T12:20:02;99595.94;;;12.30
69186;BMP280;56298;49.246;9.410;2023-03-16T12:22:36;99605.50;;;12.16
69186;BMP280;56298;49.246;9.410;2023-03-16T12:25:12;99604.09;;;12.06
69186;BMP280;56298;49.246;9.410;2023-03-16T12:27:40;99596.44;;;12.16
69186;BMP280;56298;49.246;9.410;2023-03-16T12:33:38;99590.13;;;11.95
69186;BMP280;56298;49.246;9.410;2023-03-16T12:42:50;99580.69;;;12.32
69186;BMP280;56298;49.246;9.410;2023-03-16T12:44:55;99580.50;;;12.61
69186;BMP280;56298;49.246;9.410;2023-03-16T12:47:25;99573.53;;;12.47
69186;BMP280;56298;49.246;9.410;2023-03-16T12:49:52;99574.25;;;12.24
69186;BMP280;56298;49.246;9.410;2023-03-16T12:52:18;99570.25;;;12.42
69186;BMP280;56298;49.246;9.410;2023-03-16T12:57:38;99565.06;;;12.56
69186;BMP280;56298;49.246;9.410;2023-03-16T13:00:04;99567.94;;;12.63
69186;BMP280;56298;49.246;9.410;2023-03-16T13:02:35;99547.34;;;12.77
69186;BMP280;56298;49.246;9.410;2023-03-16T13:05:13;99555.31;;;12.59
69186;BMP280;56298;49.246;9.410;2023-03-16T13:07:47;99545.00;;;12.56
69186;BMP280;56298;49.246;9.410;2023-03-16T13:10:13;99545.53;;;12.61
69186;BMP280;56298;49.246;9.410;2023-03-16T13:12:41;99547.31;;;12.34
69186;BMP280;56298;49.246;9.410;2023-03-16T13:15:24;99541.81;;;12.34
69186;BMP280;56298;49.246;9.410;2023-03-16T13:20:30;99538.47;;;12.64
69186;BMP280;56298;49.246;9.410;2023-03-16T13:23:16;99538.47;;;12.64
69186;BMP280;56298;49.246;9.410;2023-03-16T13:26:37;99541.00;;;12.73
69186;BMP280;56298;49.246;9.410;2023-03-16T13:29:14;99541.97;;;12.61
69186;BMP280;56298;49.246;9.410;2023-03-16T13:31:43;99543.94;;;12.83
69186;BMP280;56298;49.246;9.410;2023-03-16T13:34:14;99542.91;;;12.92
69186;BMP280;56298;49.246;9.410;2023-03-16T13:36:43;99529.88;;;13.35
69186;BMP280;56298;49.246;9.410;2023-03-16T13:39:18;99529.19;;;13.42
69186;BMP280;56298;49.246;9.410;2023-03-16T13:42:23;99536.91;;;13.60
69186;BMP280;56298;49.246;9.410;2023-03-16T13:44:53;99525.31;;;13.20
69186;BMP280;56298;49.246;9.410;2023-03-16T13:47:20;99529.91;;;12.69
69186;BMP280;56298;49.246;9.410;2023-03-16T13:49:47;99518.72;;;12.58
69186;BMP280;56298;49.246;9.410;2023-03-16T13:52:21;99523.09;;;12.20
69186;BMP280;56298;49.246;9.410;2023-03-16T13:54:48;99517.47;;;11.96
69186;BMP280;56298;49.246;9.410;2023-03-16T13:57:19;99512.25;;;11.72
69186;BMP280;56298;49.246;9.410;2023-03-16T13:59:44;99496.63;;;11.56
69186;BMP280;56298;49.246;9.410;2023-03-16T14:02:17;99502.59;;;11.62
69186;BMP280;56298;49.246;9.410;2023-03-16T14:04:43;99495.34;;;11.69
69186;BMP280;56298;49.246;9.410;2023-03-16T14:07:17;99493.03;;;11.72
69186;BMP280;56298;49.246;9.410;2023-03-16T14:09:43;99492.56;;;12.05
69186;BMP280;56298;49.246;9.410;2023-03-16T14:12:15;99486.59;;;12.03
69186;BMP280;56298;49.246;9.410;2023-03-16T14:14:41;99485.09;;;12.06
69186;BMP280;56298;49.246;9.410;2023-03-16T14:17:13;99482.50;;;11.93
69186;BMP280;56298;49.246;9.410;2023-03-16T14:19:51;99479.22;;;11.68
69186;BMP280;56298;49.246;9.410;2023-03-16T14:22:30;99481.28;;;11.91
69186;BMP280;56298;49.246;9.410;2023-03-16T14:24:58;99468.97;;;12.04
69186;BMP280;56298;49.246;9.410;2023-03-16T14:27:31;99463.81;;;11.83
69186;BMP280;56298;49.246;9.410;2023-03-16T14:30:20;99462.47;;;11.93
69186;BMP280;56298;49.246;9.410;2023-03-16T14:35:25;99452.72;;;11.95
69186;BMP280;56298;49.246;9.410;2023-03-16T14:37:51;99448.66;;;11.89
69186;BMP280;56298;49.246;9.410;2023-03-16T14:40:30;99453.63;;;11.83
69186;BMP280;56298;49.246;9.410;2023-03-16T14:43:00;99446.91;;;11.81
69186;BMP280;56298;49.246;9.410;2023-03-16T14:45:34;99436.56;;;11.94
69186;BMP280;56298;49.246;9.410;2023-03-16T14:48:15;99448.78;;;11.96
69186;BMP280;56298;49.246;9.410;2023-03-16T14:50:55;99450.59;;;11.89
69186;BMP280;56298;49.246;9.410;2023-03-16T14:53:22;99445.94;;;12.12
69186;BMP280;56298;49.246;9.410;2023-03-16T14:55:48;99449.94;;;12.15
69186;BMP280;56298;49.246;9.410;2023-03-16T14:58:14;99441.56;;;12.08
69186;BMP280;56298;49.246;9.410;2023-03-16T15:00:41;99443.16;;;12.09
69186;BMP280;56298;49.246;9.410;2023-03-16T15:03:11;99438.66;;;11.81
69186;BMP280;56298;49.246;9.410;2023-03-16T15:05:41;99448.13;;;11.83
69186;BMP280;56298;49.246;9.410;2023-03-16T15:08:13;99435.22;;;11.64